createdAt,value
2024-02-20T00:02:29.631Z,3.17
2024-02-20T00:05:33.407Z,3.23
2024-02-20T00:08:36.648Z,3.32
2024-02-20T00:11:47.384Z,3.23
2024-02-20T00:14:53.952Z,3.19
2024-02-20T00:17:57.568Z,3.33
2024-02-20T00:21:01.044Z,3.36
2024-02-20T00:24:05.849Z,3.35
2024-02-20T00:27:12.185Z,3.41
2024-02-20T00:30:20.585Z,3.37
2024-02-20T00:33:24.885Z,3.32
2024-02-20T00:36:30.668Z,3.49
2024-02-20T00:39:37.176Z,3.51
2024-02-20T00:42:47.305Z,3.48
2024-02-20T00:45:51.878Z,3.50
2024-02-20T00:48:56.910Z,3.52
2024-02-20T00:52:04.871Z,3.44
2024-02-20T00:55:09.484Z,3.45
2024-02-20T00:58:12.852Z,3.51
2024-02-20T01:01:18.206Z,3.47
2024-02-20T01:04:23.252Z,3.39
2024-02-20T01:07:31.380Z,3.47
2024-02-20T01:10:35.605Z,3.47
2024-02-20T01:13:47.491Z,3.51
2024-02-20T01:16:57.407Z,3.60
2024-02-20T01:20:02.870Z,3.55
2024-02-20T01:23:09.983Z,3.63
2024-02-20T01:26:16.315Z,3.45
2024-02-20T01:29:25.229Z,3.60
2024-02-20T01:32:44.390Z,3.60
2024-02-20T01:35:52.120Z,3.60
2024-02-20T01:39:00.946Z,3.67
2024-02-20T01:42:04.428Z,3.72
2024-02-20T01:45:10.030Z,3.79
2024-02-20T01:48:14.144Z,3.66
2024-02-20T01:51:16.986Z,3.68
2024-02-20T01:54:28.055Z,3.65
2024-02-20T01:57:34.389Z,3.67
2024-02-20T02:00:38.156Z,3.73
2024-02-20T02:03:49.067Z,3.67
2024-02-20T02:06:53.944Z,3.77
2024-02-20T02:09:59.341Z,3.86
2024-02-20T02:13:02.650Z,3.77
2024-02-20T02:16:09.904Z,3.74
2024-02-20T02:19:19.182Z,3.68
2024-02-20T02:22:23.029Z,3.69
2024-02-20T02:28:51.036Z,3.75
2024-02-20T02:31:54.852Z,3.80
2024-02-20T02:35:11.468Z,3.87
2024-02-20T02:38:14.514Z,3.88
2024-02-20T02:41:22.309Z,3.91
2024-02-20T02:44:28.246Z,4.09
2024-02-20T02:47:33.044Z,3.97
2024-02-20T02:50:35.726Z,3.95
2024-02-20T02:53:41.615Z,4.05
2024-02-20T02:56:48.558Z,4.00
2024-02-20T02:59:51.644Z,3.96
2024-02-20T03:02:56.178Z,3.95
2024-02-20T03:05:59.979Z,4.06
2024-02-20T03:09:17.188Z,3.98
2024-02-20T03:12:19.759Z,3.96
2024-02-20T03:15:22.983Z,3.92
2024-02-20T03:18:26.009Z,3.96
2024-02-20T03:21:32.026Z,4.00
2024-02-20T03:24:38.434Z,4.15
2024-02-20T03:27:44.706Z,4.05
2024-02-20T03:30:47.957Z,4.02
2024-02-20T03:33:54.313Z,4.05
2024-02-20T03:40:20.357Z,4.00
2024-02-20T03:43:26.255Z,4.08
2024-02-20T03:46:31.477Z,4.10
2024-02-20T03:49:35.979Z,4.08
2024-02-20T03:52:39.998Z,4.12
2024-02-20T03:55:42.790Z,3.94
2024-02-20T03:58:47.666Z,3.97
2024-02-20T04:01:56.037Z,3.97
2024-02-20T04:04:59.950Z,4.00
2024-02-20T04:08:06.457Z,4.02
2024-02-20T04:11:12.778Z,4.06
2024-02-20T04:14:16.710Z,4.03
2024-02-20T04:17:23.087Z,4.08
2024-02-20T04:20:27.116Z,4.11
2024-02-20T04:23:38.074Z,4.15
2024-02-20T04:26:44.047Z,4.06
2024-02-20T04:29:49.561Z,4.04
2024-02-20T04:32:55.058Z,4.10
2024-02-20T04:35:58.007Z,4.01
2024-02-20T04:39:04.651Z,4.18
2024-02-20T04:42:09.160Z,4.10
2024-02-20T04:45:13.733Z,4.06
2024-02-20T04:48:18.846Z,3.97
2024-02-20T04:51:25.124Z,4.00
2024-02-20T04:54:31.473Z,4.03
2024-02-20T04:57:39.475Z,4.01
2024-02-20T05:00:46.086Z,4.01
2024-02-20T05:03:51.300Z,4.10
2024-02-20T05:06:53.720Z,4.10
2024-02-20T05:10:00.000Z,4.04
2024-02-20T05:13:04.707Z,4.06
2024-02-20T05:16:10.228Z,4.10
2024-02-20T05:19:15.380Z,4.07
2024-02-20T05:22:22.771Z,4.20
2024-02-20T05:25:27.895Z,4.10
2024-02-20T05:28:33.331Z,3.97
2024-02-20T05:31:36.919Z,4.00
2024-02-20T05:34:45.014Z,4.09
2024-02-20T05:37:50.272Z,3.97
2024-02-20T05:44:10.626Z,4.00
2024-02-20T05:47:25.023Z,3.95
2024-02-20T05:50:30.539Z,4.12
2024-02-20T05:53:39.626Z,3.98
2024-02-20T05:56:44.966Z,4.00
2024-02-20T05:59:50.877Z,4.11
2024-02-20T06:02:56.146Z,4.09
2024-02-20T06:06:05.232Z,4.15
2024-02-20T06:09:09.328Z,4.17
2024-02-20T06:12:14.769Z,4.06
2024-02-20T06:15:26.110Z,4.11
2024-02-20T06:18:31.154Z,4.01
2024-02-20T06:21:44.266Z,4.08
2024-02-20T06:24:50.262Z,4.14
2024-02-20T06:27:57.641Z,4.12
2024-02-20T06:31:07.196Z,4.11
2024-02-20T06:34:12.620Z,3.98
2024-02-20T06:37:17.897Z,4.11
2024-02-20T06:40:24.271Z,3.99
2024-02-20T06:43:35.900Z,4.13
2024-02-20T06:46:44.586Z,4.18
2024-02-20T06:49:49.702Z,4.22
2024-02-20T06:52:55.420Z,4.10
2024-02-20T06:55:59.888Z,4.29
2024-02-20T06:59:06.568Z,4.24
2024-02-20T07:02:10.154Z,4.29
2024-02-20T07:05:14.687Z,4.34
2024-02-20T07:08:23.702Z,4.35
2024-02-20T07:11:30.726Z,4.32
2024-02-20T07:14:34.124Z,4.40
2024-02-20T07:17:38.570Z,4.34
2024-02-20T07:20:46.327Z,4.42
2024-02-20T07:30:26.061Z,4.51
2024-02-20T07:33:36.355Z,4.60
2024-02-20T07:36:47.618Z,4.57
2024-02-20T07:39:51.321Z,4.69
2024-02-20T07:42:56.029Z,4.72
2024-02-20T07:46:00.216Z,4.70
2024-02-20T07:49:07.413Z,4.71
2024-02-20T07:52:14.950Z,4.64
2024-02-20T07:55:19.722Z,4.78
2024-02-20T07:58:30.835Z,4.64
2024-02-20T08:01:39.854Z,4.78
2024-02-20T08:04:45.618Z,4.89
2024-02-20T08:07:49.244Z,4.89
2024-02-20T08:10:52.795Z,4.96
2024-02-20T08:13:58.823Z,4.98
2024-02-20T08:17:04.397Z,4.91
2024-02-20T08:20:10.235Z,5.01
2024-02-20T08:23:12.591Z,5.07
2024-02-20T08:26:19.686Z,5.06
2024-02-20T08:29:29.820Z,5.09
2024-02-20T08:32:33.279Z,5.17
2024-02-20T08:35:45.082Z,5.06
2024-02-20T08:38:50.812Z,5.08
2024-02-20T08:41:53.238Z,5.29
2024-02-20T08:45:04.878Z,5.40
2024-02-20T08:48:09.982Z,5.43
2024-02-20T08:51:16.354Z,5.37
2024-02-20T08:54:24.823Z,5.42
2024-02-20T08:57:28.181Z,5.45
2024-02-20T09:00:37.328Z,5.55
2024-02-20T09:03:49.162Z,5.53
2024-02-20T09:06:54.604Z,5.61
2024-02-20T09:09:59.110Z,5.69
2024-02-20T09:13:03.184Z,5.81
2024-02-20T09:16:07.127Z,5.89
2024-02-20T09:19:12.338Z,5.82
2024-02-20T09:22:16.369Z,5.75
2024-02-20T09:25:20.434Z,5.77
2024-02-20T09:28:27.622Z,5.89
2024-02-20T09:31:32.410Z,5.86
2024-02-20T09:34:37.211Z,5.86
2024-02-20T09:37:47.897Z,5.90
2024-02-20T09:40:52.300Z,5.84
2024-02-20T09:43:58.740Z,5.82
2024-02-20T09:47:10.155Z,5.79
2024-02-20T09:50:23.110Z,6.03
2024-02-20T09:53:26.678Z,6.03
2024-02-20T09:56:42.886Z,5.93
2024-02-20T09:59:48.607Z,5.78
2024-02-20T10:02:53.755Z,5.92
2024-02-20T10:06:04.030Z,6.10
2024-02-20T10:09:13.010Z,6.21
2024-02-20T10:12:23.881Z,6.32
2024-02-20T10:15:30.905Z,6.39
2024-02-20T10:18:39.834Z,6.49
2024-02-20T10:21:52.814Z,6.43
2024-02-20T10:25:16.043Z,6.38
2024-02-20T10:28:23.328Z,6.50
2024-02-20T10:31:29.513Z,6.52
2024-02-20T10:34:46.709Z,6.48
2024-02-20T10:38:29.087Z,6.45
2024-02-20T10:41:34.470Z,6.50
2024-02-20T10:44:47.421Z,6.42
2024-02-20T10:47:52.436Z,6.37
2024-02-20T10:50:55.428Z,6.48
2024-02-20T10:54:03.172Z,6.40
2024-02-20T10:57:08.882Z,6.51
2024-02-20T11:00:14.879Z,6.62
2024-02-20T11:03:19.924Z,6.72
2024-02-20T11:06:22.621Z,6.84
2024-02-20T11:09:27.283Z,6.74
2024-02-20T11:12:35.318Z,6.98
2024-02-20T11:15:41.037Z,6.89
2024-02-20T11:19:02.149Z,6.92
2024-02-20T11:22:14.694Z,6.72
2024-02-20T11:25:31.712Z,6.70
2024-02-20T11:28:45.975Z,6.68
2024-02-20T11:31:54.523Z,6.76
2024-02-20T11:34:58.682Z,6.79
2024-02-20T11:38:11.071Z,6.72
2024-02-20T11:41:15.566Z,6.74
2024-02-20T11:44:22.051Z,6.59
2024-02-20T11:47:24.563Z,6.54
2024-02-20T11:50:36.370Z,6.55
2024-02-20T11:53:45.335Z,6.54
2024-02-20T11:56:47.793Z,6.36
2024-02-20T11:59:50.156Z,6.34
2024-02-20T12:06:18.478Z,6.69
2024-02-20T12:09:22.860Z,6.77
2024-02-20T12:12:42.492Z,6.78
2024-02-20T12:16:09.310Z,6.74
2024-02-20T12:19:29.800Z,6.72
2024-02-20T12:25:50.925Z,6.84
2024-02-20T12:28:58.665Z,6.87
2024-02-20T12:32:07.354Z,7.00
2024-02-20T12:35:15.396Z,7.01
2024-02-20T12:38:20.066Z,7.04
2024-02-20T12:41:22.380Z,6.86
2024-02-20T12:44:34.033Z,6.83
2024-02-20T12:47:39.429Z,6.74
2024-02-20T12:50:52.644Z,6.47
2024-02-20T12:54:05.243Z,6.89
2024-02-20T12:57:11.950Z,6.79
2024-02-20T13:00:30.207Z,6.81
2024-02-20T13:03:40.446Z,6.81
2024-02-20T13:06:44.428Z,6.78
2024-02-20T13:09:55.080Z,6.86
2024-02-20T13:13:04.766Z,6.80
2024-02-20T13:16:08.152Z,6.76
2024-02-20T13:19:19.955Z,6.73
2024-02-20T13:22:25.691Z,6.79
2024-02-20T13:25:33.073Z,6.80
2024-02-20T13:31:58.178Z,6.58
2024-02-20T13:35:13.433Z,6.60
2024-02-20T13:38:18.505Z,6.78
2024-02-20T13:41:28.571Z,6.75
2024-02-20T13:44:41.602Z,6.67
2024-02-20T13:47:46.290Z,6.64
2024-02-20T13:51:00.084Z,6.52
2024-02-20T13:54:06.428Z,6.46
2024-02-20T13:57:13.713Z,6.34
2024-02-20T14:00:17.514Z,6.28
2024-02-20T14:03:28.377Z,6.33
2024-02-20T14:06:36.925Z,6.37
2024-02-20T14:09:39.703Z,6.39
2024-02-20T14:12:49.344Z,6.42
2024-02-20T14:15:54.936Z,6.34
2024-02-20T14:19:00.719Z,6.27
2024-02-20T14:22:06.481Z,6.22
2024-02-20T14:25:09.672Z,6.19
2024-02-20T14:28:12.367Z,6.23
2024-02-20T14:31:21.568Z,6.28
2024-02-20T14:34:28.282Z,6.22
2024-02-20T14:37:34.949Z,6.20
2024-02-20T14:40:38.679Z,6.23
2024-02-20T14:43:48.429Z,6.18
2024-02-20T14:46:58.943Z,6.27
2024-02-20T14:50:08.382Z,6.27
2024-02-20T14:53:13.465Z,6.13
2024-02-20T14:56:19.912Z,6.17
2024-02-20T14:59:29.683Z,6.08
2024-02-20T15:02:33.380Z,6.06
2024-02-20T15:05:37.237Z,6.06
2024-02-20T15:08:43.475Z,6.03
2024-02-20T15:11:52.301Z,5.92
2024-02-20T15:14:59.686Z,5.83
2024-02-20T15:18:04.439Z,5.87
2024-02-20T15:21:35.297Z,5.71
2024-02-20T15:25:01.990Z,5.64
2024-02-20T15:28:10.317Z,5.66
2024-02-20T15:31:17.665Z,5.54
2024-02-20T15:34:29.317Z,5.57
2024-02-20T15:37:40.081Z,5.55
2024-02-20T15:40:52.747Z,5.62
2024-02-20T15:43:55.431Z,5.56
2024-02-20T15:47:11.653Z,5.64
2024-02-20T15:50:20.860Z,5.62
2024-02-20T15:53:25.640Z,5.53
2024-02-20T15:56:30.813Z,5.60
2024-02-20T16:03:20.257Z,5.43
2024-02-20T16:06:28.159Z,5.47
2024-02-20T16:09:35.765Z,5.35
2024-02-20T16:16:12.122Z,5.31
2024-02-20T16:19:20.949Z,5.29
2024-02-20T16:22:27.732Z,5.13
2024-02-20T16:25:40.691Z,5.08
2024-02-20T16:28:48.373Z,4.92
2024-02-20T16:31:55.372Z,4.84
2024-02-20T16:34:59.266Z,4.71
2024-02-20T16:38:04.801Z,4.71
2024-02-20T16:41:09.917Z,4.65
2024-02-20T16:44:16.127Z,4.68
2024-02-20T16:50:45.333Z,4.55
2024-02-20T16:53:57.147Z,4.55
2024-02-20T16:57:00.043Z,4.43
2024-02-20T17:00:05.919Z,4.49
2024-02-20T17:03:10.315Z,4.49
2024-02-20T17:06:16.246Z,4.51
2024-02-20T17:09:27.826Z,4.42
2024-02-20T17:12:39.748Z,4.49
2024-02-20T17:15:49.116Z,4.39
2024-02-20T17:18:53.946Z,4.33
2024-02-20T17:25:19.252Z,4.34
2024-02-20T17:31:49.340Z,4.30
2024-02-20T17:34:59.208Z,4.37
2024-02-20T17:38:05.568Z,4.34
2024-02-20T17:41:56.272Z,4.30
2024-02-20T17:45:00.377Z,4.23
2024-02-20T17:48:03.813Z,4.28
2024-02-20T17:51:11.755Z,4.27
2024-02-20T17:54:15.613Z,4.21
2024-02-20T17:57:19.706Z,4.26
2024-02-20T18:03:55.340Z,4.31
2024-02-20T18:06:59.751Z,4.30
2024-02-20T18:10:11.356Z,4.23
2024-02-20T18:13:24.696Z,4.25
2024-02-20T18:16:27.121Z,4.14
2024-02-20T18:19:48.030Z,4.05
2024-02-20T18:22:54.981Z,4.01
2024-02-20T18:25:59.611Z,3.90
2024-02-20T18:29:07.972Z,3.82
2024-02-20T18:32:16.452Z,3.76
2024-02-20T18:35:23.286Z,3.77
2024-02-20T18:38:35.334Z,3.84
2024-02-20T18:41:45.846Z,3.65
2024-02-20T18:44:53.468Z,3.66
2024-02-20T18:48:06.607Z,3.63
2024-02-20T18:51:14.427Z,3.67
2024-02-20T18:54:16.835Z,3.45
2024-02-20T18:57:19.401Z,3.38
2024-02-20T19:00:31.831Z,3.38
2024-02-20T19:03:37.527Z,3.41
2024-02-20T19:06:47.642Z,3.33
2024-02-20T19:09:55.088Z,3.32
2024-02-20T19:12:58.628Z,3.37
2024-02-20T19:16:04.169Z,3.45
2024-02-20T19:19:11.247Z,3.35
2024-02-20T19:22:18.079Z,3.44
2024-02-20T19:25:21.776Z,3.38
2024-02-20T19:28:26.933Z,3.30
2024-02-20T19:31:37.246Z,3.30
2024-02-20T19:34:47.211Z,3.38
2024-02-20T19:37:55.474Z,3.31
2024-02-20T19:41:09.306Z,3.31
2024-02-20T19:44:13.450Z,3.23
2024-02-20T19:47:21.183Z,3.28
2024-02-20T19:50:23.796Z,3.28
2024-02-20T19:53:28.400Z,3.26
2024-02-20T19:56:30.775Z,3.21
2024-02-20T19:59:38.567Z,3.27
2024-02-20T20:02:50.211Z,3.25
2024-02-20T20:06:05.122Z,3.19
2024-02-20T20:09:16.369Z,3.14
2024-02-20T20:12:22.564Z,3.09
2024-02-20T20:15:30.091Z,3.21
2024-02-20T20:18:35.364Z,3.18
2024-02-20T20:21:38.940Z,3.27
2024-02-20T20:24:41.491Z,3.28
2024-02-20T20:27:58.398Z,3.21
2024-02-20T20:31:00.821Z,3.18
2024-02-20T20:34:05.470Z,3.18
2024-02-20T20:37:13.909Z,3.20
2024-02-20T20:40:22.793Z,3.31
2024-02-20T20:43:28.244Z,3.35
2024-02-20T20:53:19.650Z,3.32
2024-02-20T20:56:34.393Z,3.32
2024-02-20T20:59:40.557Z,3.41
2024-02-20T21:02:47.159Z,3.25
2024-02-20T21:05:55.022Z,3.45
2024-02-20T21:09:11.536Z,3.49
2024-02-20T21:12:15.991Z,3.56
2024-02-20T21:15:18.395Z,3.38
2024-02-20T21:18:20.832Z,3.39
2024-02-20T21:21:28.814Z,3.36
2024-02-20T21:24:33.375Z,3.33
2024-02-20T21:27:37.381Z,3.46
2024-02-20T21:30:45.314Z,3.45
2024-02-20T21:33:57.160Z,3.52
2024-02-20T21:37:02.026Z,3.54
2024-02-20T21:40:07.727Z,3.54
2024-02-20T21:43:11.210Z,3.77
2024-02-20T21:46:19.272Z,3.56
2024-02-20T21:49:25.401Z,3.58
2024-02-20T21:52:27.819Z,3.68
2024-02-20T21:55:34.444Z,3.51
2024-02-20T21:58:37.939Z,3.64
2024-02-20T22:01:42.114Z,3.58
2024-02-20T22:04:52.970Z,3.55
2024-02-20T22:11:16.502Z,3.73
2024-02-20T22:14:22.731Z,3.64
2024-02-20T22:17:29.721Z,3.66
2024-02-20T22:20:41.006Z,3.60
2024-02-20T22:23:47.598Z,3.56
2024-02-20T22:26:56.963Z,3.53
2024-02-20T22:30:02.009Z,3.61
2024-02-20T22:33:07.383Z,3.46
2024-02-20T22:36:16.917Z,3.46
2024-02-20T22:39:30.168Z,3.38
2024-02-20T22:42:34.060Z,3.37
2024-02-20T22:45:39.735Z,3.33
2024-02-20T22:48:48.276Z,3.39
2024-02-20T22:51:55.100Z,3.41
2024-02-20T22:54:58.774Z,3.56
2024-02-20T22:58:04.472Z,3.53
2024-02-20T23:01:11.155Z,3.48
2024-02-20T23:04:16.817Z,3.44
2024-02-20T23:07:25.825Z,3.45
2024-02-20T23:10:30.846Z,3.46
2024-02-20T23:13:37.566Z,3.47
2024-02-20T23:16:41.565Z,3.52
2024-02-20T23:19:47.104Z,3.55
2024-02-20T23:22:50.737Z,3.54
2024-02-20T23:25:56.786Z,3.56
2024-02-20T23:29:02.205Z,3.55
2024-02-20T23:32:07.303Z,3.67
2024-02-20T23:35:10.731Z,3.68
2024-02-20T23:38:15.951Z,3.66
2024-02-20T23:41:23.874Z,3.63
2024-02-20T23:47:58.688Z,3.65
2024-02-20T23:51:06.734Z,3.66
2024-02-20T23:54:11.319Z,3.72
2024-02-20T23:57:14.877Z,3.70
